createdAt,value
2019-02-07T00:01:41.003Z,-2.00
2019-02-07T00:04:09.993Z,-2.00
2019-02-07T00:06:39.036Z,-2.10
2019-02-07T00:09:10.005Z,-2.10
2019-02-07T00:11:39.581Z,-2.10
2019-02-07T00:14:08.773Z,-2.10
2019-02-07T00:16:37.966Z,-2.10
2019-02-07T00:19:06.997Z,-2.10
2019-02-07T00:21:36.282Z,-2.10
2019-02-07T00:24:05.277Z,-2.10
2019-02-07T00:26:34.213Z,-2.00
2019-02-07T00:29:03.410Z,-2.00
2019-02-07T00:31:32.397Z,-2.00
2019-02-07T00:34:01.360Z,-2.00
2019-02-07T00:36:30.550Z,-1.90
2019-02-07T00:38:59.801Z,-1.90
2019-02-07T00:41:28.816Z,-1.90
2019-02-07T00:43:58.021Z,-2.00
2019-02-07T00:46:26.998Z,-2.20
2019-02-07T00:48:56.108Z,-2.10
2019-02-07T00:51:25.385Z,-2.20
2019-02-07T00:53:54.322Z,-2.10
2019-02-07T00:56:23.263Z,-2.10
2019-02-07T00:58:52.418Z,-2.10
2019-02-07T01:01:21.455Z,-2.00
2019-02-07T01:03:50.534Z,-2.10
2019-02-07T01:06:19.642Z,-2.10
2019-02-07T01:08:48.680Z,-2.50
2019-02-07T01:11:17.846Z,-2.40
2019-02-07T01:13:47.154Z,-2.70
2019-02-07T01:16:16.238Z,-2.50
2019-02-07T01:18:45.274Z,-2.50
2019-02-07T01:21:14.365Z,-2.50
2019-02-07T01:23:43.547Z,-2.50
2019-02-07T01:26:12.591Z,-2.40
2019-02-07T01:28:41.986Z,-2.20
2019-02-07T01:31:11.157Z,-2.30
2019-02-07T01:33:40.389Z,-2.40
2019-02-07T01:36:09.418Z,-2.40
2019-02-07T01:38:38.478Z,-2.40
2019-02-07T01:41:07.591Z,-2.20
2019-02-07T01:43:37.070Z,-2.40
2019-02-07T01:46:06.050Z,-2.50
2019-02-07T01:48:35.062Z,-2.60
2019-02-07T01:51:04.203Z,-3.00
2019-02-07T01:53:33.481Z,-2.90
2019-02-07T01:56:02.490Z,-2.80
2019-02-07T01:58:31.493Z,-2.80
2019-02-07T02:01:00.479Z,-3.00
2019-02-07T02:03:29.492Z,-2.90
2019-02-07T02:05:58.826Z,-2.90
2019-02-07T02:08:27.808Z,-2.70
2019-02-07T02:10:56.874Z,-2.80
2019-02-07T02:13:26.133Z,-2.70
2019-02-07T02:15:55.139Z,-2.70
2019-02-07T02:18:24.441Z,-2.70
2019-02-07T02:20:53.480Z,-2.80
2019-02-07T02:23:22.757Z,-2.70
2019-02-07T02:25:51.791Z,-2.60
2019-02-07T02:28:20.809Z,-2.50
2019-02-07T02:30:49.801Z,-2.20
2019-02-07T02:33:18.817Z,-2.30
2019-02-07T02:35:48.081Z,-2.20
2019-02-07T02:38:17.128Z,-2.10
2019-02-07T02:40:46.041Z,-2.20
2019-02-07T02:43:14.985Z,-2.30
2019-02-07T02:45:44.277Z,-2.30
2019-02-07T02:48:13.291Z,-2.20
2019-02-07T02:50:42.206Z,-2.10
2019-02-07T02:53:11.224Z,-2.10
2019-02-07T02:55:42.585Z,-2.10
2019-02-07T02:58:11.509Z,-2.30
2019-02-07T03:01:05.982Z,-2.30
2019-02-07T03:03:40.015Z,-2.40
2019-02-07T03:06:27.192Z,-2.40
2019-02-07T03:09:14.159Z,-2.40
2019-02-07T03:12:01.044Z,-2.30
2019-02-07T03:14:46.781Z,-2.30
2019-02-07T03:17:30.912Z,-2.10
2019-02-07T03:20:34.051Z,-2.10
2019-02-07T03:23:24.886Z,-2.30
2019-02-07T03:26:13.058Z,-2.20
2019-02-07T03:29:04.444Z,-2.30
2019-02-07T03:32:10.897Z,-2.30
2019-02-07T03:34:51.932Z,-2.20
2019-02-07T03:37:31.661Z,-2.20
2019-02-07T03:40:15.416Z,-2.30
2019-02-07T03:42:58.829Z,-2.20
2019-02-07T03:46:03.017Z,-2.20
2019-02-07T03:49:03.352Z,-1.90
2019-02-07T03:51:53.494Z,-2.20
2019-02-07T03:54:37.401Z,-2.20
2019-02-07T03:57:34.535Z,-2.30
2019-02-07T04:00:16.820Z,-2.30
2019-02-07T04:03:13.950Z,-2.20
2019-02-07T04:06:01.949Z,-2.10
2019-02-07T04:08:48.552Z,-2.10
2019-02-07T04:11:35.492Z,-2.20
2019-02-07T04:14:24.462Z,-2.10
2019-02-07T04:17:11.370Z,-2.10
2019-02-07T04:19:59.455Z,-2.20
2019-02-07T04:22:42.711Z,-2.60
2019-02-07T04:25:48.939Z,-2.40
2019-02-07T04:28:33.622Z,-2.20
2019-02-07T04:31:11.333Z,-2.30
2019-02-07T04:33:58.584Z,-2.30
2019-02-07T04:36:46.598Z,-2.20
2019-02-07T04:39:24.392Z,-2.20
2019-02-07T04:42:14.173Z,-2.00
2019-02-07T04:45:11.021Z,-1.90
2019-02-07T04:48:02.125Z,-1.80
2019-02-07T04:50:43.095Z,-2.00
2019-02-07T04:53:30.142Z,-2.10
2019-02-07T04:56:15.794Z,-2.10
2019-02-07T04:59:02.770Z,-2.00
2019-02-07T05:01:49.794Z,-1.90
2019-02-07T05:04:41.342Z,-1.80
2019-02-07T05:07:28.206Z,-1.80
2019-02-07T05:10:16.816Z,-1.70
2019-02-07T05:13:07.705Z,-1.70
2019-02-07T05:15:51.483Z,-1.80
2019-02-07T05:18:42.446Z,-2.00
2019-02-07T05:21:33.274Z,-2.10
2019-02-07T05:24:32.866Z,-2.10
2019-02-07T05:27:27.162Z,-2.10
2019-02-07T05:30:23.199Z,-2.00
2019-02-07T05:33:00.912Z,-1.90
2019-02-07T05:35:43.624Z,-2.00
2019-02-07T05:38:21.997Z,-1.90
2019-02-07T05:41:10.267Z,-1.80
2019-02-07T05:43:57.622Z,-1.90
2019-02-07T05:46:50.726Z,-1.90
2019-02-07T05:49:30.804Z,-2.00
2019-02-07T05:52:14.674Z,-2.10
2019-02-07T05:55:01.793Z,-2.00
2019-02-07T05:57:49.864Z,-2.20
2019-02-07T06:00:36.575Z,-2.20
2019-02-07T06:03:17.340Z,-2.20
2019-02-07T06:06:06.029Z,-2.40
2019-02-07T06:08:53.954Z,-2.40
2019-02-07T06:11:40.676Z,-2.40
2019-02-07T06:14:32.497Z,-2.40
2019-02-07T06:17:19.586Z,-2.20
2019-02-07T06:20:06.542Z,-2.40
2019-02-07T06:22:43.174Z,-2.40
2019-02-07T06:25:34.615Z,-2.40
2019-02-07T06:28:25.309Z,-2.40
2019-02-07T06:31:12.296Z,-2.50
2019-02-07T06:34:09.761Z,-2.50
2019-02-07T06:36:49.334Z,-2.50
2019-02-07T06:39:46.328Z,-2.50
2019-02-07T06:42:25.262Z,-2.70
2019-02-07T06:45:25.265Z,-2.60
2019-02-07T06:48:10.050Z,-2.60
2019-02-07T06:50:57.308Z,-2.70
2019-02-07T06:53:44.209Z,-2.60
2019-02-07T06:56:32.198Z,-2.60
2019-02-07T06:59:32.165Z,-2.70
2019-02-07T07:02:18.843Z,-2.70
2019-02-07T07:04:59.044Z,-2.70
2019-02-07T07:07:47.580Z,-2.70
2019-02-07T07:10:54.212Z,-2.70
2019-02-07T07:13:44.954Z,-2.70
2019-02-07T07:16:35.800Z,-2.70
2019-02-07T07:19:22.914Z,-2.70
2019-02-07T07:22:17.472Z,-2.80
2019-02-07T07:25:05.577Z,-2.90
2019-02-07T07:28:08.885Z,-2.80
2019-02-07T07:30:57.226Z,-2.80
2019-02-07T07:33:33.850Z,-2.70
2019-02-07T07:36:12.414Z,-2.80
2019-02-07T07:38:59.061Z,-2.80
2019-02-07T07:41:53.214Z,-2.80
2019-02-07T07:44:53.857Z,-2.80
2019-02-07T07:47:47.984Z,-2.80
2019-02-07T07:50:27.366Z,-2.80
2019-02-07T07:53:16.543Z,-2.70
2019-02-07T07:55:53.805Z,-2.60
2019-02-07T07:59:01.335Z,-2.40
2019-02-07T08:01:51.589Z,-2.30
2019-02-07T08:04:38.860Z,-2.20
2019-02-07T08:07:16.854Z,-2.20
2019-02-07T08:09:59.822Z,-2.10
2019-02-07T08:12:36.895Z,-2.10
2019-02-07T08:15:27.403Z,-2.00
2019-02-07T08:18:15.852Z,-1.90
2019-02-07T08:21:03.366Z,-1.80
2019-02-07T08:23:54.368Z,-1.70
2019-02-07T08:26:42.643Z,-1.60
2019-02-07T08:29:27.412Z,-1.40
2019-02-07T08:32:08.958Z,-1.30
2019-02-07T08:34:55.716Z,-1.30
2019-02-07T08:37:52.825Z,-1.20
2019-02-07T08:40:40.897Z,-1.20
2019-02-07T08:43:47.414Z,-1.10
2019-02-07T08:46:30.615Z,-0.90
2019-02-07T08:49:11.464Z,-0.90
2019-02-07T08:51:59.604Z,-0.80
2019-02-07T08:54:52.856Z,-0.60
2019-02-07T08:57:31.954Z,-0.50
2019-02-07T09:00:13.754Z,-0.40
2019-02-07T09:02:53.892Z,-0.30
2019-02-07T09:05:44.717Z,-0.20
2019-02-07T09:08:35.825Z,-0.20
2019-02-07T09:11:24.089Z,-0.20
2019-02-07T09:14:24.746Z,0.00
2019-02-07T09:17:14.599Z,0.20
2019-02-07T09:19:55.900Z,0.30
2019-02-07T09:22:46.783Z,0.30
2019-02-07T09:25:38.082Z,0.40
2019-02-07T09:28:28.922Z,0.40
2019-02-07T09:31:29.378Z,0.40
2019-02-07T09:34:23.344Z,0.40
2019-02-07T09:37:26.640Z,0.50
2019-02-07T09:40:27.106Z,0.60
2019-02-07T09:43:25.507Z,0.60
2019-02-07T09:46:29.108Z,0.90
2019-02-07T09:49:15.586Z,1.10
2019-02-07T09:51:51.165Z,1.20
2019-02-07T09:54:51.316Z,1.20
2019-02-07T09:57:36.241Z,1.20
2019-02-07T10:00:38.443Z,1.30
2019-02-07T10:03:26.531Z,1.20
2019-02-07T10:06:29.784Z,1.30
2019-02-07T10:09:16.787Z,1.40
2019-02-07T10:12:03.734Z,1.40
2019-02-07T10:14:45.751Z,1.50
2019-02-07T10:17:35.072Z,1.40
2019-02-07T10:20:39.344Z,1.50
2019-02-07T10:23:26.533Z,1.70
2019-02-07T10:26:20.832Z,1.70
2019-02-07T10:29:08.835Z,1.70
2019-02-07T10:31:56.214Z,1.70
2019-02-07T10:34:34.229Z,1.80
2019-02-07T10:37:29.977Z,1.90
2019-02-07T10:40:16.710Z,1.80
2019-02-07T10:43:10.525Z,1.90
2019-02-07T10:46:01.521Z,2.00
2019-02-07T10:48:49.617Z,2.00
2019-02-07T10:51:46.522Z,2.10
2019-02-07T10:54:33.169Z,2.20
2019-02-07T10:57:21.130Z,2.20
2019-02-07T11:00:08.537Z,2.20
2019-02-07T11:02:55.810Z,2.20
2019-02-07T11:05:42.997Z,2.30
2019-02-07T11:08:40.201Z,2.30
2019-02-07T11:11:18.805Z,2.40
2019-02-07T11:14:05.710Z,2.50
2019-02-07T11:16:44.643Z,2.60
2019-02-07T11:19:31.654Z,2.70
2019-02-07T11:22:19.902Z,2.80
2019-02-07T11:25:01.990Z,2.80
2019-02-07T11:27:50.112Z,2.90
2019-02-07T11:30:36.025Z,2.80
2019-02-07T11:33:25.932Z,2.90
2019-02-07T11:36:12.933Z,3.00
2019-02-07T11:39:04.678Z,3.10
2019-02-07T11:42:02.522Z,3.10
2019-02-07T11:44:50.695Z,3.20
2019-02-07T11:47:42.491Z,3.20
2019-02-07T11:50:33.418Z,3.30
2019-02-07T11:53:30.883Z,3.30
2019-02-07T11:56:34.063Z,3.40
2019-02-07T11:59:31.392Z,3.50
2019-02-07T12:02:22.738Z,3.50
2019-02-07T12:05:06.484Z,3.60
2019-02-07T12:07:53.393Z,3.50
2019-02-07T12:10:59.867Z,3.60
2019-02-07T12:13:50.535Z,3.60
2019-02-07T12:16:38.538Z,3.70
2019-02-07T12:19:29.406Z,3.70
2019-02-07T12:22:17.512Z,3.80
2019-02-07T12:25:04.347Z,3.70
2019-02-07T12:28:04.081Z,3.80
2019-02-07T12:30:51.129Z,3.80
2019-02-07T12:33:33.559Z,3.80
2019-02-07T12:36:16.675Z,3.90
2019-02-07T12:39:01.086Z,3.90
2019-02-07T12:41:55.018Z,3.90
2019-02-07T12:44:43.320Z,4.00
2019-02-07T12:47:30.055Z,4.00
2019-02-07T12:50:23.352Z,4.00
2019-02-07T12:53:18.954Z,4.00
2019-02-07T12:56:05.844Z,4.10
2019-02-07T12:58:52.966Z,4.10
2019-02-07T13:01:39.841Z,4.10
2019-02-07T13:04:26.965Z,4.10
2019-02-07T13:07:24.377Z,4.00
2019-02-07T13:10:22.073Z,4.00
2019-02-07T13:13:12.145Z,4.00
2019-02-07T13:16:09.319Z,4.10
2019-02-07T13:18:57.450Z,4.10
2019-02-07T13:21:44.389Z,4.10
2019-02-07T13:24:33.961Z,4.20
2019-02-07T13:27:25.272Z,4.20
2019-02-07T13:30:14.882Z,4.20
2019-02-07T13:33:02.065Z,4.30
2019-02-07T13:35:56.485Z,4.30
2019-02-07T13:38:44.949Z,4.30
2019-02-07T13:41:33.642Z,4.30
2019-02-07T13:44:15.431Z,4.30
2019-02-07T13:47:21.834Z,4.40
2019-02-07T13:50:18.910Z,4.40
2019-02-07T13:53:11.362Z,4.30
2019-02-07T13:55:58.466Z,4.30
2019-02-07T13:58:49.736Z,4.30
2019-02-07T14:01:28.701Z,4.40
2019-02-07T14:04:08.876Z,4.40
2019-02-07T14:06:56.922Z,4.40
2019-02-07T14:09:47.173Z,4.40
2019-02-07T14:12:41.555Z,4.40
2019-02-07T14:15:29.456Z,4.40
2019-02-07T14:18:17.757Z,4.30
2019-02-07T14:21:03.947Z,4.30
2019-02-07T14:24:01.188Z,4.30
2019-02-07T14:26:45.029Z,4.30
2019-02-07T14:29:32.150Z,4.20
2019-02-07T14:32:32.587Z,4.30
2019-02-07T14:35:36.327Z,4.30
2019-02-07T14:38:23.180Z,4.30
2019-02-07T14:41:01.049Z,4.40
2019-02-07T14:43:39.565Z,4.40
2019-02-07T14:46:28.013Z,4.40
2019-02-07T14:48:56.996Z,4.30
2019-02-07T14:51:26.042Z,4.20
2019-02-07T14:53:55.087Z,4.20
2019-02-07T14:56:24.752Z,4.10
2019-02-07T14:58:53.694Z,4.10
2019-02-07T15:01:22.830Z,4.20
2019-02-07T15:03:51.981Z,4.20
2019-02-07T15:06:21.026Z,4.30
2019-02-07T15:08:50.471Z,4.30
2019-02-07T15:11:19.512Z,4.20
2019-02-07T15:13:48.879Z,4.20
2019-02-07T15:16:18.063Z,4.20
2019-02-07T15:18:47.097Z,4.10
2019-02-07T15:21:16.042Z,4.20
2019-02-07T15:23:44.969Z,4.20
2019-02-07T15:26:14.017Z,4.10
2019-02-07T15:28:43.422Z,4.10
2019-02-07T15:31:12.406Z,4.20
2019-02-07T15:34:02.006Z,4.20
2019-02-07T15:36:31.107Z,4.30
2019-02-07T15:39:00.159Z,4.30
2019-02-07T15:41:29.223Z,4.30
2019-02-07T15:43:58.485Z,4.40
2019-02-07T15:46:27.770Z,4.40
2019-02-07T15:48:56.718Z,4.50
2019-02-07T15:51:25.727Z,4.50
2019-02-07T15:53:54.745Z,4.50
2019-02-07T15:56:24.057Z,4.50
2019-02-07T15:59:19.904Z,4.70
2019-02-07T16:02:08.061Z,4.70
2019-02-07T16:04:39.922Z,4.70
2019-02-07T16:07:08.953Z,4.80
2019-02-07T16:09:38.047Z,4.80
2019-02-07T16:12:07.046Z,4.80
2019-02-07T16:14:36.045Z,4.70
2019-02-07T16:17:05.062Z,4.80
2019-02-07T16:19:34.061Z,4.90
2019-02-07T16:22:03.076Z,5.00
2019-02-07T16:24:32.027Z,5.00
2019-02-07T16:27:00.927Z,5.00
2019-02-07T16:29:30.281Z,5.00
2019-02-07T16:31:59.654Z,5.00
2019-02-07T16:34:30.180Z,5.00
2019-02-07T16:36:59.457Z,4.90
2019-02-07T16:39:28.457Z,4.90
2019-02-07T16:42:05.881Z,4.90
2019-02-07T16:44:28.607Z,4.90
2019-02-07T16:46:57.916Z,5.00
2019-02-07T16:49:26.830Z,5.00
2019-02-07T16:51:55.742Z,5.00
2019-02-07T16:54:24.585Z,5.10
2019-02-07T16:56:53.499Z,5.10
2019-02-07T16:59:22.501Z,5.10
2019-02-07T17:01:51.762Z,5.10
2019-02-07T17:04:20.807Z,5.00
2019-02-07T17:06:49.778Z,5.10
2019-02-07T17:09:23.297Z,5.10
2019-02-07T17:11:52.541Z,5.00
2019-02-07T17:14:21.888Z,5.00
2019-02-07T17:16:51.131Z,5.10
2019-02-07T17:19:20.129Z,5.10
2019-02-07T17:21:49.109Z,5.00
2019-02-07T17:24:18.414Z,5.00
2019-02-07T17:26:47.417Z,4.90
2019-02-07T17:29:16.564Z,5.00
2019-02-07T17:31:45.398Z,4.90
2019-02-07T17:34:14.390Z,4.90
2019-02-07T17:36:43.334Z,4.90
2019-02-07T17:39:12.378Z,4.80
2019-02-07T17:41:41.694Z,4.90
2019-02-07T17:44:10.602Z,5.00
2019-02-07T17:46:40.079Z,5.00
2019-02-07T17:49:09.065Z,5.00
2019-02-07T17:51:38.405Z,5.00
2019-02-07T17:54:18.274Z,4.90
2019-02-07T17:56:37.993Z,5.00
2019-02-07T17:59:07.013Z,5.00
2019-02-07T18:01:36.236Z,4.90
2019-02-07T18:04:05.714Z,4.90
2019-02-07T18:06:34.713Z,4.90
2019-02-07T18:09:05.524Z,4.90
2019-02-07T18:11:34.783Z,4.90
2019-02-07T18:14:03.728Z,4.90
2019-02-07T18:16:33.106Z,4.90
2019-02-07T18:19:02.089Z,5.00
2019-02-07T18:21:34.244Z,5.00
2019-02-07T18:24:02.029Z,5.00
2019-02-07T18:26:30.950Z,5.10
2019-02-07T18:28:59.953Z,5.10
2019-02-07T18:31:28.966Z,5.10
2019-02-07T18:33:57.983Z,5.10
2019-02-07T18:36:27.058Z,5.00
2019-02-07T18:38:56.052Z,5.10
2019-02-07T18:41:24.979Z,5.10
2019-02-07T18:43:53.908Z,5.10
2019-02-07T18:46:22.873Z,5.10
2019-02-07T18:48:51.777Z,5.10
2019-02-07T18:51:20.886Z,5.10
2019-02-07T18:53:49.919Z,5.10
2019-02-07T18:56:18.960Z,5.20
2019-02-07T18:58:48.047Z,5.20
2019-02-07T19:01:17.211Z,5.20
2019-02-07T19:03:46.500Z,5.20
2019-02-07T19:06:15.601Z,5.10
2019-02-07T19:08:44.635Z,5.10
2019-02-07T19:11:13.651Z,5.10
2019-02-07T19:13:42.695Z,5.00
2019-02-07T19:16:16.873Z,5.00
2019-02-07T19:18:46.114Z,5.00
2019-02-07T19:21:15.213Z,5.00
2019-02-07T19:23:44.168Z,5.10
2019-02-07T19:26:13.562Z,5.10
2019-02-07T19:28:42.707Z,5.10
2019-02-07T19:31:11.705Z,5.10
2019-02-07T19:33:40.917Z,5.10
2019-02-07T19:36:09.837Z,5.10
2019-02-07T19:38:38.753Z,5.10
2019-02-07T19:41:07.595Z,5.00
2019-02-07T19:43:36.589Z,5.00
2019-02-07T19:46:05.582Z,5.00
2019-02-07T19:48:34.510Z,5.00
2019-02-07T19:51:03.904Z,5.10
2019-02-07T19:53:32.892Z,5.10
2019-02-07T19:56:02.042Z,5.10
2019-02-07T19:58:31.372Z,5.20
2019-02-07T20:01:00.388Z,5.20
2019-02-07T20:03:29.482Z,5.20
2019-02-07T20:05:58.884Z,5.10
2019-02-07T20:08:28.336Z,5.20
2019-02-07T20:10:57.355Z,5.20
2019-02-07T20:13:26.354Z,5.20
2019-02-07T20:15:55.342Z,5.20
2019-02-07T20:18:24.311Z,5.20
2019-02-07T20:20:53.289Z,5.20
2019-02-07T20:23:22.566Z,5.20
2019-02-07T20:25:51.550Z,5.20
2019-02-07T20:28:20.552Z,5.10
2019-02-07T20:33:18.838Z,5.10
2019-02-07T20:35:47.821Z,5.10
2019-02-07T20:38:17.069Z,5.10
2019-02-07T20:40:46.610Z,5.10
2019-02-07T20:43:15.528Z,5.10
2019-02-07T20:45:44.533Z,5.10
2019-02-07T20:48:13.453Z,5.10
2019-02-07T20:50:42.786Z,5.20
2019-02-07T20:53:14.744Z,5.20
2019-02-07T20:55:43.660Z,5.10
2019-02-07T20:58:13.002Z,5.10
2019-02-07T21:00:42.344Z,5.20
2019-02-07T21:03:11.334Z,5.10
2019-02-07T21:05:40.337Z,5.20
2019-02-07T21:08:09.317Z,5.10
2019-02-07T21:10:38.430Z,5.10
2019-02-07T21:13:07.894Z,5.10
2019-02-07T21:15:37.119Z,5.10
2019-02-07T21:18:06.274Z,5.10
2019-02-07T21:20:36.716Z,5.10
2019-02-07T21:23:06.605Z,5.10
2019-02-07T21:25:42.045Z,5.10
2019-02-07T21:28:11.443Z,5.10
2019-02-07T21:30:40.467Z,5.10
2019-02-07T21:33:09.484Z,5.10
2019-02-07T21:35:38.498Z,5.00
2019-02-07T21:38:08.070Z,5.00
2019-02-07T21:40:37.069Z,5.00
2019-02-07T21:43:06.466Z,5.10
2019-02-07T21:45:36.059Z,5.10
2019-02-07T21:48:08.016Z,5.10
2019-02-07T21:50:37.056Z,5.10
2019-02-07T21:53:06.062Z,5.10
2019-02-07T21:55:35.262Z,5.10
2019-02-07T21:58:04.874Z,5.10
2019-02-07T22:00:35.956Z,5.10
2019-02-07T22:03:06.966Z,5.00
2019-02-07T22:05:55.077Z,4.90
2019-02-07T22:08:24.402Z,5.00
2019-02-07T22:10:53.673Z,5.00
2019-02-07T22:13:22.714Z,5.00
2019-02-07T22:15:51.562Z,5.00
2019-02-07T22:18:20.402Z,4.90
2019-02-07T22:20:49.674Z,5.00
2019-02-07T22:23:18.506Z,4.90
2019-02-07T22:25:47.429Z,4.90
2019-02-07T22:28:16.383Z,4.90
2019-02-07T22:30:45.578Z,5.00
2019-02-07T22:33:14.413Z,5.00
2019-02-07T22:35:43.417Z,4.90
2019-02-07T22:38:12.509Z,4.90
2019-02-07T22:40:43.781Z,4.90
2019-02-07T22:43:13.133Z,4.90
2019-02-07T22:45:41.989Z,4.80
2019-02-07T22:48:10.990Z,4.70
2019-02-07T22:50:39.905Z,4.80
2019-02-07T22:53:08.968Z,4.80
2019-02-07T22:55:38.092Z,4.80
2019-02-07T22:58:08.645Z,4.70
2019-02-07T23:01:40.096Z,4.70
2019-02-07T23:04:09.478Z,4.60
2019-02-07T23:06:38.494Z,4.60
2019-02-07T23:09:11.808Z,4.50
2019-02-07T23:11:40.782Z,4.50
2019-02-07T23:14:10.321Z,4.30
2019-02-07T23:16:39.426Z,4.30
2019-02-07T23:19:08.539Z,4.40
2019-02-07T23:21:37.707Z,4.40
2019-02-07T23:24:06.760Z,4.30
2019-02-07T23:26:35.870Z,4.30
2019-02-07T23:29:06.326Z,4.20
2019-02-07T23:31:35.331Z,4.20
2019-02-07T23:34:05.322Z,4.10
2019-02-07T23:36:34.696Z,4.10
2019-02-07T23:39:06.053Z,4.20
2019-02-07T23:41:35.356Z,4.10
2019-02-07T23:44:05.775Z,4.10
2019-02-07T23:46:34.702Z,4.20
2019-02-07T23:49:04.466Z,4.20
2019-02-07T23:51:33.462Z,4.10
2019-02-07T23:54:02.481Z,4.10
2019-02-07T23:56:31.435Z,4.20
2019-02-07T23:59:00.413Z,4.20
